createdAt,value
2018-12-21T00:01:45.780Z,84.07
2018-12-21T00:04:14.638Z,84.24
2018-12-21T00:06:43.284Z,83.99
2018-12-21T00:09:12.009Z,83.68
2018-12-21T00:11:40.773Z,83.60
2018-12-21T00:14:09.478Z,83.41
2018-12-21T00:16:38.216Z,83.32
2018-12-21T00:19:06.860Z,83.22
2018-12-21T00:21:35.615Z,83.57
2018-12-21T00:24:04.441Z,84.00
2018-12-21T00:26:33.197Z,83.88
2018-12-21T00:29:01.896Z,83.65
2018-12-21T00:31:35.851Z,83.52
2018-12-21T00:34:09.678Z,83.62
2018-12-21T00:36:43.697Z,83.35
2018-12-21T00:39:17.690Z,83.00
2018-12-21T00:41:45.613Z,82.73
2018-12-21T00:44:19.606Z,83.16
2018-12-21T00:46:51.957Z,83.83
2018-12-21T00:49:21.225Z,84.27
2018-12-21T00:51:50.070Z,84.50
2018-12-21T00:54:18.841Z,84.63
2018-12-21T00:56:47.607Z,84.82
2018-12-21T00:59:16.325Z,84.78
2018-12-21T01:01:46.136Z,84.79
2018-12-21T01:04:14.843Z,84.72
2018-12-21T01:06:43.612Z,84.21
2018-12-21T01:09:12.398Z,84.22
2018-12-21T01:11:41.356Z,84.21
2018-12-21T01:14:10.263Z,83.93
2018-12-21T01:16:39.184Z,84.22
2018-12-21T01:19:07.964Z,84.23
2018-12-21T01:21:38.901Z,84.13
2018-12-21T01:24:07.354Z,83.97
2018-12-21T01:26:36.160Z,83.77
2018-12-21T01:29:04.867Z,83.84
2018-12-21T01:31:33.735Z,83.54
2018-12-21T01:34:02.371Z,84.11
2018-12-21T01:36:31.113Z,84.04
2018-12-21T01:38:59.918Z,83.81
2018-12-21T01:41:28.619Z,83.29
2018-12-21T01:43:57.345Z,83.54
2018-12-21T01:46:26.031Z,83.97
2018-12-21T01:48:54.744Z,84.59
2018-12-21T01:51:23.674Z,85.46
2018-12-21T01:53:52.453Z,86.25
2018-12-21T01:56:21.208Z,86.37
2018-12-21T01:58:49.920Z,86.88
2018-12-21T02:01:18.676Z,86.70
2018-12-21T02:03:47.370Z,86.81
2018-12-21T02:06:16.252Z,86.61
2018-12-21T02:08:44.999Z,86.67
2018-12-21T02:11:13.739Z,86.33
2018-12-21T02:13:48.857Z,86.11
2018-12-21T02:16:17.560Z,86.07
2018-12-21T02:18:46.317Z,86.03
2018-12-21T02:21:15.020Z,85.93
2018-12-21T02:23:43.683Z,85.56
2018-12-21T02:26:12.596Z,85.89
2018-12-21T02:28:41.482Z,85.91
2018-12-21T02:31:10.138Z,85.62
2018-12-21T02:33:38.907Z,85.57
2018-12-21T02:36:07.744Z,85.22
2018-12-21T02:38:36.514Z,85.14
2018-12-21T02:41:05.201Z,84.93
2018-12-21T02:43:33.981Z,84.81
2018-12-21T02:46:02.671Z,85.31
2018-12-21T02:48:31.377Z,84.93
2018-12-21T02:51:00.191Z,85.31
2018-12-21T02:53:28.887Z,85.28
2018-12-21T02:55:57.875Z,85.20
2018-12-21T02:58:26.663Z,84.73
2018-12-21T03:00:55.370Z,84.30
2018-12-21T03:03:24.100Z,84.47
2018-12-21T03:05:52.834Z,85.00
2018-12-21T03:08:21.704Z,85.15
2018-12-21T03:10:50.574Z,85.24
2018-12-21T03:13:19.276Z,85.30
2018-12-21T03:15:47.957Z,85.57
2018-12-21T03:18:16.820Z,85.47
2018-12-21T03:20:45.632Z,85.45
2018-12-21T03:23:14.344Z,85.51
2018-12-21T03:25:43.103Z,85.44
2018-12-21T03:28:11.961Z,85.67
2018-12-21T03:30:40.710Z,85.44
2018-12-21T03:33:09.490Z,85.62
2018-12-21T03:35:38.210Z,85.35
2018-12-21T03:38:07.108Z,85.21
2018-12-21T03:40:35.917Z,84.96
2018-12-21T03:43:04.582Z,85.31
2018-12-21T03:45:33.389Z,85.23
2018-12-21T03:48:02.086Z,85.28
2018-12-21T03:50:30.800Z,85.52
2018-12-21T03:52:59.537Z,85.50
2018-12-21T03:55:28.325Z,85.63
2018-12-21T03:57:57.077Z,85.74
2018-12-21T04:00:25.839Z,85.92
2018-12-21T04:02:54.558Z,85.50
2018-12-21T04:05:23.218Z,85.48
2018-12-21T04:07:51.961Z,85.13
2018-12-21T04:10:20.630Z,85.25
2018-12-21T04:12:49.389Z,85.32
2018-12-21T04:15:18.133Z,85.47
2018-12-21T04:17:46.883Z,85.78
2018-12-21T04:20:15.670Z,85.40
2018-12-21T04:22:44.488Z,85.13
2018-12-21T04:25:13.142Z,85.51
2018-12-21T04:27:41.898Z,85.39
2018-12-21T04:30:11.144Z,85.33
2018-12-21T04:32:39.850Z,85.10
2018-12-21T04:35:08.653Z,84.96
2018-12-21T04:37:37.404Z,85.20
2018-12-21T04:40:06.704Z,85.16
2018-12-21T04:42:35.405Z,85.22
2018-12-21T04:45:04.388Z,84.93
2018-12-21T04:47:33.229Z,85.22
2018-12-21T04:50:01.975Z,85.49
2018-12-21T04:52:30.618Z,85.59
2018-12-21T04:54:59.412Z,85.27
2018-12-21T04:57:28.113Z,85.28
2018-12-21T04:59:57.029Z,85.34
2018-12-21T05:02:25.795Z,85.67
2018-12-21T05:04:54.617Z,85.40
2018-12-21T05:07:23.307Z,84.99
2018-12-21T05:09:52.125Z,85.39
2018-12-21T05:12:20.809Z,85.65
2018-12-21T05:14:49.606Z,85.48
2018-12-21T05:17:18.343Z,85.91
2018-12-21T05:19:47.149Z,85.87
2018-12-21T05:22:15.813Z,85.40
2018-12-21T05:24:44.555Z,85.33
2018-12-21T05:27:13.263Z,85.24
2018-12-21T05:29:41.977Z,85.22
2018-12-21T05:32:10.716Z,85.65
2018-12-21T05:34:39.374Z,85.74
2018-12-21T05:37:08.126Z,86.16
2018-12-21T05:39:36.889Z,86.14
2018-12-21T05:42:05.716Z,85.56
2018-12-21T05:44:34.458Z,86.06
2018-12-21T05:47:03.232Z,86.25
2018-12-21T05:49:32.029Z,86.55
2018-12-21T05:52:00.839Z,86.43
2018-12-21T05:54:29.598Z,86.28
2018-12-21T05:56:58.379Z,86.75
2018-12-21T05:59:27.187Z,87.08
2018-12-21T06:01:55.911Z,87.56
2018-12-21T06:04:24.695Z,88.02
2018-12-21T06:06:53.336Z,88.18
2018-12-21T06:09:22.077Z,88.51
2018-12-21T06:11:50.707Z,88.44
2018-12-21T06:14:19.603Z,88.49
2018-12-21T06:16:48.300Z,88.25
2018-12-21T06:19:17.119Z,87.98
2018-12-21T06:21:45.873Z,87.90
2018-12-21T06:24:14.616Z,87.79
2018-12-21T06:26:43.311Z,87.91
2018-12-21T06:29:12.076Z,88.11
2018-12-21T06:31:40.775Z,87.83
2018-12-21T06:34:09.413Z,87.65
2018-12-21T06:36:38.214Z,87.09
2018-12-21T06:39:08.339Z,87.27
2018-12-21T06:41:37.051Z,87.06
2018-12-21T06:44:05.796Z,87.19
2018-12-21T06:46:34.568Z,86.92
2018-12-21T06:49:03.353Z,86.81
2018-12-21T06:51:32.091Z,86.79
2018-12-21T06:54:00.848Z,86.57
2018-12-21T06:56:29.549Z,86.36
2018-12-21T06:58:58.302Z,86.27
2018-12-21T07:01:27.025Z,86.17
2018-12-21T07:03:56.478Z,86.22
2018-12-21T07:06:25.186Z,86.22
2018-12-21T07:08:53.950Z,86.03
2018-12-21T07:11:22.601Z,85.95
2018-12-21T07:13:51.470Z,85.39
2018-12-21T07:16:20.281Z,85.35
2018-12-21T07:18:49.078Z,85.09
2018-12-21T07:21:17.848Z,85.07
2018-12-21T07:23:46.722Z,85.38
2018-12-21T07:26:15.615Z,85.16
2018-12-21T07:28:44.366Z,85.39
2018-12-21T07:31:13.025Z,85.11
2018-12-21T07:33:41.754Z,84.82
2018-12-21T07:36:10.721Z,84.40
2018-12-21T07:38:39.482Z,84.60
2018-12-21T07:41:08.209Z,84.57
2018-12-21T07:43:36.906Z,83.70
2018-12-21T07:46:05.699Z,83.33
2018-12-21T07:48:34.349Z,83.00
2018-12-21T07:51:03.100Z,83.03
2018-12-21T07:53:35.955Z,83.01
2018-12-21T07:56:02.720Z,83.31
2018-12-21T07:58:31.583Z,83.04
2018-12-21T08:01:00.330Z,82.43
2018-12-21T08:03:29.124Z,82.91
2018-12-21T08:05:57.812Z,82.77
2018-12-21T08:08:26.557Z,83.31
2018-12-21T08:10:55.275Z,83.37
2018-12-21T08:13:24.027Z,83.25
2018-12-21T08:15:52.795Z,83.10
2018-12-21T08:18:21.556Z,83.32
2018-12-21T08:20:50.381Z,82.67
2018-12-21T08:23:19.094Z,81.32
2018-12-21T08:25:47.780Z,81.27
2018-12-21T08:28:16.482Z,80.54
2018-12-21T08:30:45.243Z,79.46
2018-12-21T08:33:13.974Z,79.55
2018-12-21T08:35:42.843Z,79.60
2018-12-21T08:38:12.586Z,79.36
2018-12-21T08:40:41.318Z,78.79
2018-12-21T08:43:10.060Z,78.57
2018-12-21T08:45:38.821Z,79.92
2018-12-21T08:48:07.644Z,79.86
2018-12-21T08:50:36.282Z,80.31
2018-12-21T08:53:05.138Z,79.99
2018-12-21T08:55:33.961Z,80.06
2018-12-21T08:58:02.750Z,80.07
2018-12-21T09:00:31.396Z,80.12
2018-12-21T09:03:00.223Z,80.50
2018-12-21T09:05:29.013Z,80.33
2018-12-21T09:07:57.865Z,80.28
2018-12-21T09:10:26.732Z,80.30
2018-12-21T09:12:55.515Z,80.45
2018-12-21T09:15:24.231Z,80.15
2018-12-21T09:17:53.149Z,80.33
2018-12-21T09:20:21.879Z,80.12
2018-12-21T09:22:50.674Z,80.37
2018-12-21T09:25:19.409Z,80.07
2018-12-21T09:27:48.199Z,80.32
2018-12-21T09:30:17.004Z,80.01
2018-12-21T09:32:45.688Z,79.54
2018-12-21T09:35:14.407Z,79.60
2018-12-21T09:37:43.165Z,79.58
2018-12-21T09:40:13.216Z,79.31
2018-12-21T09:42:41.999Z,79.65
2018-12-21T09:45:10.834Z,79.13
2018-12-21T09:47:39.563Z,79.85
2018-12-21T09:50:10.322Z,80.42
2018-12-21T09:52:38.997Z,80.76
2018-12-21T09:55:08.593Z,80.47
2018-12-21T09:57:37.539Z,80.81
2018-12-21T10:00:09.541Z,80.17
2018-12-21T10:02:38.230Z,80.11
2018-12-21T10:05:09.019Z,79.90
2018-12-21T10:07:37.820Z,79.50
2018-12-21T10:10:07.034Z,79.59
2018-12-21T10:12:35.750Z,80.14
2018-12-21T10:15:05.140Z,80.18
2018-12-21T10:17:33.901Z,80.32
2018-12-21T10:20:02.690Z,80.12
2018-12-21T10:22:37.868Z,79.92
2018-12-21T10:25:07.148Z,79.77
2018-12-21T10:27:35.793Z,79.46
2018-12-21T10:30:05.542Z,79.02
2018-12-21T10:32:34.319Z,79.14
2018-12-21T10:35:03.037Z,79.44
2018-12-21T10:37:31.755Z,79.38
2018-12-21T10:40:00.516Z,78.67
2018-12-21T10:42:29.272Z,78.80
2018-12-21T10:44:57.963Z,78.77
2018-12-21T10:47:26.699Z,78.32
2018-12-21T10:49:55.631Z,78.32
2018-12-21T10:52:24.373Z,78.17
2018-12-21T10:57:28.228Z,78.72
2018-12-21T10:59:56.979Z,78.00
2018-12-21T11:02:25.676Z,77.57
2018-12-21T11:04:54.387Z,77.01
2018-12-21T11:07:23.092Z,76.34
2018-12-21T11:09:51.930Z,75.19
2018-12-21T11:12:20.774Z,74.33
2018-12-21T11:14:49.421Z,74.58
2018-12-21T11:17:18.319Z,74.83
2018-12-21T11:22:19.306Z,74.28
2018-12-21T11:24:48.085Z,74.05
2018-12-21T11:27:16.786Z,74.58
2018-12-21T11:29:45.494Z,74.57
2018-12-21T11:32:14.253Z,75.05
2018-12-21T11:34:42.960Z,75.38
2018-12-21T11:37:11.789Z,75.59
2018-12-21T11:39:40.636Z,75.99
2018-12-21T11:42:09.396Z,76.00
2018-12-21T11:44:38.158Z,75.41
2018-12-21T11:47:06.940Z,75.61
2018-12-21T11:49:35.683Z,75.92
2018-12-21T11:52:04.327Z,75.73
2018-12-21T11:54:33.185Z,76.12
2018-12-21T11:57:01.861Z,76.49
2018-12-21T11:59:30.535Z,76.54
2018-12-21T12:01:59.308Z,76.11
2018-12-21T12:04:28.004Z,76.87
2018-12-21T12:06:56.760Z,77.81
2018-12-21T12:09:25.516Z,78.18
2018-12-21T12:11:54.167Z,78.37
2018-12-21T12:14:22.922Z,78.08
2018-12-21T12:16:51.693Z,78.60
2018-12-21T12:19:20.471Z,78.59
2018-12-21T12:21:49.225Z,77.91
2018-12-21T12:24:17.964Z,76.84
2018-12-21T12:26:46.684Z,75.53
2018-12-21T12:29:15.412Z,73.65
2018-12-21T12:31:44.145Z,73.57
2018-12-21T12:34:12.883Z,73.07
2018-12-21T12:36:41.642Z,72.76
2018-12-21T12:39:10.455Z,72.23
2018-12-21T12:41:39.196Z,72.02
2018-12-21T12:44:07.974Z,71.76
2018-12-21T12:46:39.636Z,70.40
2018-12-21T12:49:08.471Z,69.34
2018-12-21T12:51:37.192Z,69.01
2018-12-21T12:54:05.931Z,68.80
2018-12-21T12:56:34.708Z,68.62
2018-12-21T12:59:03.458Z,68.74
2018-12-21T13:01:32.230Z,66.14
2018-12-21T13:04:00.978Z,63.43
2018-12-21T13:06:29.696Z,61.22
2018-12-21T13:08:58.332Z,57.47
2018-12-21T13:11:27.123Z,58.36
2018-12-21T13:13:57.043Z,58.28
2018-12-21T13:16:25.825Z,59.04
2018-12-21T13:18:54.555Z,59.58
2018-12-21T13:21:23.270Z,60.90
2018-12-21T13:23:52.148Z,63.58
2018-12-21T13:26:20.966Z,65.02
2018-12-21T13:28:49.892Z,66.16
2018-12-21T13:31:18.590Z,66.58
2018-12-21T13:33:47.353Z,68.18
2018-12-21T13:36:16.143Z,69.05
2018-12-21T13:38:44.856Z,69.96
2018-12-21T13:41:13.622Z,70.29
2018-12-21T13:43:42.320Z,71.04
2018-12-21T13:46:11.023Z,71.30
2018-12-21T13:48:39.800Z,71.43
2018-12-21T13:51:08.521Z,71.67
2018-12-21T13:53:37.234Z,72.09
2018-12-21T13:56:05.954Z,73.25
2018-12-21T13:58:34.741Z,73.59
2018-12-21T14:01:03.593Z,73.84
2018-12-21T14:03:32.415Z,73.99
2018-12-21T14:06:01.104Z,74.43
2018-12-21T14:08:29.849Z,75.02
2018-12-21T14:10:58.540Z,75.90
2018-12-21T14:13:27.277Z,75.94
2018-12-21T14:15:55.904Z,76.00
2018-12-21T14:18:24.725Z,76.70
2018-12-21T14:20:53.488Z,76.68
2018-12-21T14:23:22.224Z,76.79
2018-12-21T14:25:50.880Z,76.77
2018-12-21T14:28:19.607Z,77.17
2018-12-21T14:30:48.361Z,77.20
2018-12-21T14:33:17.120Z,77.57
2018-12-21T14:35:45.878Z,77.53
2018-12-21T14:38:14.731Z,77.53
2018-12-21T14:40:43.387Z,78.14
2018-12-21T14:43:12.139Z,77.82
2018-12-21T14:45:40.952Z,77.77
2018-12-21T14:48:09.735Z,77.47
2018-12-21T14:50:38.461Z,78.42
2018-12-21T14:53:07.175Z,78.43
2018-12-21T14:55:37.604Z,78.90
2018-12-21T14:58:06.731Z,79.58
2018-12-21T15:00:35.530Z,80.21
2018-12-21T15:03:04.250Z,79.77
2018-12-21T15:05:32.951Z,79.79
2018-12-21T15:08:01.824Z,80.39
2018-12-21T15:10:30.519Z,81.37
2018-12-21T15:12:59.227Z,81.85
2018-12-21T15:15:27.955Z,81.65
2018-12-21T15:17:56.654Z,82.14
2018-12-21T15:20:25.486Z,82.24
2018-12-21T15:22:54.156Z,82.88
2018-12-21T15:25:22.902Z,82.91
2018-12-21T15:27:51.639Z,83.22
2018-12-21T15:30:20.348Z,83.08
2018-12-21T15:35:24.013Z,82.17
2018-12-21T15:37:52.713Z,82.46
2018-12-21T15:40:21.482Z,82.43
2018-12-21T15:42:50.224Z,82.94
2018-12-21T15:45:19.115Z,82.46
2018-12-21T15:47:47.954Z,83.26
2018-12-21T15:50:16.706Z,83.19
2018-12-21T15:52:45.515Z,83.74
2018-12-21T15:55:14.163Z,83.53
2018-12-21T15:57:42.907Z,83.97
2018-12-21T16:00:13.964Z,84.30
2018-12-21T16:02:44.828Z,84.89
2018-12-21T16:05:13.574Z,85.18
2018-12-21T16:07:42.387Z,85.34
2018-12-21T16:10:12.668Z,85.54
2018-12-21T16:12:41.484Z,85.60
2018-12-21T16:15:11.058Z,86.01
2018-12-21T16:17:39.852Z,85.82
2018-12-21T16:20:11.737Z,85.95
2018-12-21T16:22:42.552Z,86.53
2018-12-21T16:25:11.197Z,86.66
2018-12-21T16:27:40.116Z,86.77
2018-12-21T16:30:11.601Z,87.09
2018-12-21T16:32:40.453Z,86.60
2018-12-21T16:35:09.242Z,86.81
2018-12-21T16:37:38.089Z,86.63
2018-12-21T16:40:08.912Z,86.97
2018-12-21T16:42:37.688Z,86.35
2018-12-21T16:45:08.355Z,86.85
2018-12-21T16:47:37.129Z,86.82
2018-12-21T16:50:09.120Z,86.62
2018-12-21T16:52:37.979Z,86.97
2018-12-21T16:55:06.982Z,86.84
2018-12-21T16:57:35.828Z,86.28
2018-12-21T17:00:07.151Z,86.10
2018-12-21T17:02:35.816Z,85.00
2018-12-21T17:05:05.192Z,85.00
2018-12-21T17:07:33.996Z,85.05
2018-12-21T17:10:02.713Z,85.74
2018-12-21T17:12:31.467Z,85.33
2018-12-21T17:15:00.283Z,85.25
2018-12-21T17:17:29.001Z,85.16
2018-12-21T17:19:58.826Z,85.14
2018-12-21T17:22:27.636Z,85.80
2018-12-21T17:24:56.523Z,86.04
2018-12-21T17:27:25.253Z,86.08
2018-12-21T17:29:54.007Z,86.57
2018-12-21T17:32:22.853Z,87.09
2018-12-21T17:34:51.565Z,86.71
2018-12-21T17:37:20.362Z,86.73
2018-12-21T17:39:49.088Z,86.99
2018-12-21T17:42:17.855Z,86.17
2018-12-21T17:44:46.597Z,86.13
2018-12-21T17:47:15.389Z,85.88
2018-12-21T17:49:44.190Z,86.61
2018-12-21T17:52:12.900Z,87.05
2018-12-21T17:54:41.787Z,87.60
2018-12-21T17:57:10.555Z,87.76
2018-12-21T17:59:39.491Z,87.82
2018-12-21T18:02:08.249Z,88.28
2018-12-21T18:04:36.950Z,88.01
2018-12-21T18:07:05.716Z,88.08
2018-12-21T18:09:36.132Z,88.35
2018-12-21T18:12:05.111Z,88.52
2018-12-21T18:14:33.891Z,88.54
2018-12-21T18:17:04.253Z,88.34
2018-12-21T18:19:32.924Z,88.13
2018-12-21T18:22:12.310Z,88.25
2018-12-21T18:24:41.287Z,88.25
2018-12-21T18:27:10.133Z,88.51
2018-12-21T18:29:40.861Z,88.81
2018-12-21T18:32:26.871Z,88.93
2018-12-21T18:34:57.738Z,89.13
2018-12-21T18:37:26.395Z,89.49
2018-12-21T18:39:55.198Z,89.64
2018-12-21T18:42:23.916Z,89.99
2018-12-21T18:44:52.680Z,90.00
2018-12-21T18:47:21.339Z,89.70
2018-12-21T18:49:50.096Z,88.80
2018-12-21T18:52:18.796Z,88.61
2018-12-21T18:54:47.564Z,88.18
2018-12-21T18:57:18.523Z,87.96
2018-12-21T18:59:47.311Z,87.91
2018-12-21T19:02:15.977Z,88.25
2018-12-21T19:04:44.781Z,87.95
2018-12-21T19:07:13.570Z,88.04
2018-12-21T19:09:42.333Z,88.48
2018-12-21T19:12:11.452Z,88.81
2018-12-21T19:14:40.285Z,88.68
2018-12-21T19:17:09.770Z,88.63
2018-12-21T19:19:38.590Z,88.02
2018-12-21T19:22:07.522Z,87.93
2018-12-21T19:24:36.317Z,88.06
2018-12-21T19:27:05.200Z,88.24
2018-12-21T19:29:33.990Z,88.08
2018-12-21T19:32:02.840Z,88.18
2018-12-21T19:34:31.621Z,88.25
2018-12-21T19:37:00.534Z,88.78
2018-12-21T19:39:29.290Z,88.67
2018-12-21T19:41:58.079Z,88.83
2018-12-21T19:44:27.292Z,88.79
2018-12-21T19:46:56.090Z,89.07
2018-12-21T19:49:24.863Z,89.18
2018-12-21T19:51:53.627Z,89.06
2018-12-21T19:54:23.515Z,88.77
2018-12-21T19:57:12.050Z,88.63
2018-12-21T19:59:40.753Z,88.91
2018-12-21T20:02:09.917Z,88.99
2018-12-21T20:04:40.460Z,89.42
2018-12-21T20:07:09.118Z,89.05
2018-12-21T20:09:37.857Z,88.52
2018-12-21T20:12:07.323Z,88.18
2018-12-21T20:14:36.108Z,88.62
2018-12-21T20:17:04.826Z,88.28
2018-12-21T20:19:33.752Z,88.17
2018-12-21T20:22:02.537Z,88.30
2018-12-21T20:24:33.925Z,88.64
2018-12-21T20:27:15.214Z,88.37
2018-12-21T20:29:44.565Z,87.65
2018-12-21T20:32:13.350Z,87.42
2018-12-21T20:34:42.174Z,87.75
2018-12-21T20:37:10.898Z,88.08
2018-12-21T20:39:42.884Z,88.18
2018-12-21T20:42:12.676Z,87.97
2018-12-21T20:44:41.415Z,87.38
2018-12-21T20:47:10.635Z,88.01
2018-12-21T20:49:39.323Z,88.24
2018-12-21T20:52:07.999Z,88.34
2018-12-21T20:54:36.711Z,88.93
2018-12-21T20:57:07.663Z,88.69
2018-12-21T20:59:36.591Z,88.24
2018-12-21T21:02:05.384Z,88.83
2018-12-21T21:04:34.030Z,88.34
2018-12-21T21:07:02.900Z,88.62
2018-12-21T21:09:31.530Z,88.81
2018-12-21T21:12:00.255Z,88.92
2018-12-21T21:14:29.020Z,88.94
2018-12-21T21:16:57.781Z,89.15
2018-12-21T21:19:28.769Z,89.17
2018-12-21T21:21:57.488Z,89.45
2018-12-21T21:24:26.869Z,89.56
2018-12-21T21:26:55.879Z,89.67
2018-12-21T21:29:24.840Z,90.03
2018-12-21T21:31:53.541Z,90.14
2018-12-21T21:34:22.352Z,90.25
2018-12-21T21:36:51.125Z,90.26
2018-12-21T21:39:19.818Z,90.13
2018-12-21T21:41:48.564Z,90.39
2018-12-21T21:44:18.504Z,90.39
2018-12-21T21:46:48.507Z,90.58
2018-12-21T21:49:19.447Z,91.02
2018-12-21T21:51:48.424Z,91.17
2018-12-21T21:54:17.181Z,90.66
2018-12-21T21:56:45.925Z,90.35
2018-12-21T21:59:14.714Z,90.21
2018-12-21T22:01:43.409Z,90.52
2018-12-21T22:04:12.100Z,90.73
2018-12-21T22:06:40.872Z,91.18
2018-12-21T22:09:09.500Z,91.11
2018-12-21T22:11:38.212Z,91.49
2018-12-21T22:14:07.037Z,91.75
2018-12-21T22:16:35.703Z,91.85
2018-12-21T22:19:04.549Z,92.05
2018-12-21T22:21:33.195Z,91.65
2018-12-21T22:24:01.893Z,91.93
2018-12-21T22:26:30.656Z,91.47
2018-12-21T22:28:59.369Z,91.20
2018-12-21T22:31:28.080Z,91.36
2018-12-21T22:33:56.827Z,91.06
2018-12-21T22:39:00.649Z,91.53
2018-12-21T22:41:29.336Z,91.63
2018-12-21T22:43:58.022Z,91.89
2018-12-21T22:46:26.704Z,91.76
2018-12-21T22:48:55.504Z,91.70
2018-12-21T22:51:24.229Z,91.92
2018-12-21T22:53:52.994Z,91.60
2018-12-21T22:56:21.707Z,92.22
2018-12-21T22:58:50.456Z,91.62
2018-12-21T23:01:19.382Z,91.63
2018-12-21T23:03:48.016Z,91.47
2018-12-21T23:06:16.767Z,91.35
2018-12-21T23:08:45.454Z,91.56
2018-12-21T23:11:14.330Z,91.05
2018-12-21T23:13:43.141Z,91.15
2018-12-21T23:16:11.900Z,91.33
2018-12-21T23:18:40.636Z,91.66
2018-12-21T23:21:09.318Z,92.02
2018-12-21T23:23:38.065Z,91.80
2018-12-21T23:26:06.708Z,92.16
2018-12-21T23:28:35.412Z,91.97
2018-12-21T23:31:04.260Z,91.82
2018-12-21T23:33:33.049Z,91.70
2018-12-21T23:36:01.670Z,91.62
2018-12-21T23:38:30.376Z,91.71
2018-12-21T23:40:59.061Z,91.71
2018-12-21T23:43:27.734Z,91.54
2018-12-21T23:45:56.438Z,91.33
2018-12-21T23:48:25.342Z,91.29
2018-12-21T23:50:54.021Z,90.92
2018-12-21T23:53:22.816Z,90.60
2018-12-21T23:55:51.687Z,91.09
2018-12-21T23:58:20.433Z,90.99
